createdAt,value
2022-07-30T00:01:57.276Z,59.90
2022-07-30T00:04:24.939Z,60.28
2022-07-30T00:06:53.205Z,61.20
2022-07-30T00:09:21.012Z,66.35
2022-07-30T00:11:50.684Z,60.63
2022-07-30T00:14:23.376Z,62.22
2022-07-30T00:16:50.993Z,63.47
2022-07-30T00:19:21.021Z,77.03
2022-07-30T00:21:50.930Z,87.82
2022-07-30T00:24:18.609Z,96.80
2022-07-30T00:26:46.730Z,103.45
2022-07-30T00:29:14.386Z,98.10
2022-07-30T00:31:44.387Z,93.32
2022-07-30T00:34:13.104Z,91.93
2022-07-30T00:36:41.010Z,81.45
2022-07-30T00:39:11.454Z,88.13
2022-07-30T00:42:01.523Z,84.03
2022-07-30T00:44:30.283Z,73.13
2022-07-30T00:46:58.979Z,71.43
2022-07-30T00:49:27.989Z,73.55
2022-07-30T00:51:58.750Z,65.03
2022-07-30T00:54:29.375Z,70.00
2022-07-30T00:56:58.217Z,68.55
2022-07-30T00:59:31.647Z,70.82
2022-07-30T01:02:01.740Z,71.28
2022-07-30T01:04:32.246Z,63.85
2022-07-30T01:06:59.862Z,63.33
2022-07-30T01:09:27.349Z,78.15
2022-07-30T01:11:55.896Z,74.35
2022-07-30T01:14:23.573Z,72.53
2022-07-30T01:16:51.415Z,72.28
2022-07-30T01:19:46.335Z,75.30
2022-07-30T01:22:30.734Z,74.78
2022-07-30T01:25:21.054Z,76.93
2022-07-30T01:28:10.052Z,70.15
2022-07-30T01:30:42.724Z,73.72
2022-07-30T01:33:19.929Z,76.53
2022-07-30T01:35:50.725Z,65.88
2022-07-30T01:38:25.681Z,66.53
2022-07-30T01:40:56.035Z,72.63
2022-07-30T01:43:29.118Z,69.65
2022-07-30T01:45:58.886Z,69.90
2022-07-30T01:48:32.389Z,67.93
2022-07-30T01:51:05.539Z,61.10
2022-07-30T01:53:40.887Z,71.80
2022-07-30T01:56:16.673Z,66.15
2022-07-30T01:58:49.099Z,67.70
2022-07-30T02:01:28.111Z,67.88
2022-07-30T02:04:04.120Z,70.22
2022-07-30T02:07:00.339Z,71.75
2022-07-30T02:09:52.276Z,64.82
2022-07-30T02:12:31.562Z,64.20
2022-07-30T02:15:40.785Z,61.72
2022-07-30T02:18:45.321Z,56.47
2022-07-30T02:21:20.090Z,53.58
2022-07-30T02:23:50.667Z,56.80
2022-07-30T02:26:24.763Z,51.67
2022-07-30T02:29:02.237Z,55.90
2022-07-30T02:31:35.538Z,49.22
2022-07-30T02:34:07.086Z,44.42
2022-07-30T02:36:37.435Z,48.60
2022-07-30T02:39:06.868Z,44.58
2022-07-30T02:41:38.694Z,46.95
2022-07-30T02:44:10.373Z,48.92
2022-07-30T02:46:42.104Z,48.28
2022-07-30T02:49:35.495Z,49.20
2022-07-30T02:52:13.210Z,51.63
2022-07-30T02:54:44.549Z,55.10
2022-07-30T02:57:21.327Z,57.08
2022-07-30T02:59:54.451Z,59.05
2022-07-30T03:02:29.314Z,63.90
2022-07-30T03:05:08.801Z,61.15
2022-07-30T03:07:40.878Z,67.82
2022-07-30T03:10:12.243Z,71.22
2022-07-30T03:12:46.293Z,75.45
2022-07-30T03:15:14.945Z,71.40
2022-07-30T03:17:50.818Z,78.65
2022-07-30T03:20:27.335Z,75.63
2022-07-30T03:23:01.840Z,81.10
2022-07-30T03:25:32.401Z,78.40
2022-07-30T03:28:09.670Z,81.78
2022-07-30T03:30:37.933Z,75.45
2022-07-30T03:33:07.085Z,61.65
2022-07-30T03:35:35.624Z,55.78
2022-07-30T03:38:03.847Z,57.40
2022-07-30T03:40:34.652Z,56.65
2022-07-30T03:43:06.296Z,58.30
2022-07-30T03:45:58.664Z,56.28
2022-07-30T03:48:29.487Z,57.10
2022-07-30T03:51:05.722Z,61.88
2022-07-30T03:53:34.360Z,61.22
2022-07-30T03:56:34.451Z,59.50
2022-07-30T03:59:14.894Z,54.85
2022-07-30T04:01:46.506Z,57.67
2022-07-30T04:04:22.593Z,56.30
2022-07-30T04:06:52.638Z,59.67
2022-07-30T04:09:26.730Z,59.95
2022-07-30T04:11:58.697Z,57.63
2022-07-30T04:14:45.611Z,57.13
2022-07-30T04:20:24.669Z,62.78
2022-07-30T04:22:58.076Z,60.05
2022-07-30T04:25:26.848Z,63.67
2022-07-30T04:28:03.034Z,60.15
2022-07-30T04:30:35.492Z,56.30
2022-07-30T04:33:09.378Z,57.95
2022-07-30T04:35:55.692Z,55.60
2022-07-30T04:38:33.121Z,52.53
2022-07-30T04:41:01.189Z,53.35
2022-07-30T04:43:33.551Z,53.80
2022-07-30T04:46:15.262Z,54.45
2022-07-30T04:49:07.346Z,52.53
2022-07-30T04:51:38.623Z,48.65
2022-07-30T04:54:16.236Z,38.88
2022-07-30T04:56:54.199Z,35.47
2022-07-30T04:59:26.433Z,32.00
2022-07-30T05:01:56.738Z,30.05
2022-07-30T05:04:28.574Z,29.75
2022-07-30T05:06:58.758Z,30.00
2022-07-30T05:09:28.849Z,27.55
2022-07-30T05:11:57.981Z,21.63
2022-07-30T05:14:29.955Z,22.02
2022-07-30T05:16:58.560Z,21.13
2022-07-30T05:19:26.811Z,24.33
2022-07-30T05:21:57.352Z,24.92
2022-07-30T05:24:27.490Z,24.02
2022-07-30T05:26:57.671Z,25.15
2022-07-30T05:29:28.933Z,24.02
2022-07-30T05:32:07.613Z,25.42
2022-07-30T05:34:36.589Z,28.88
2022-07-30T05:37:05.036Z,33.30
2022-07-30T05:39:34.083Z,33.25
2022-07-30T05:42:35.963Z,30.67
2022-07-30T05:45:07.328Z,30.48
2022-07-30T05:47:35.035Z,26.90
2022-07-30T05:50:05.186Z,24.95
2022-07-30T05:52:34.043Z,23.17
2022-07-30T05:55:12.817Z,23.98
2022-07-30T05:57:53.278Z,26.40
2022-07-30T06:00:21.346Z,23.40
2022-07-30T06:02:53.050Z,25.83
2022-07-30T06:05:26.506Z,27.02
2022-07-30T06:07:56.484Z,28.65
2022-07-30T06:10:26.259Z,31.70
2022-07-30T06:12:54.400Z,28.20
2022-07-30T06:15:26.037Z,26.00
2022-07-30T06:18:02.008Z,26.13
2022-07-30T06:20:54.155Z,23.38
2022-07-30T06:23:33.310Z,22.17
2022-07-30T06:26:21.387Z,19.23
2022-07-30T06:28:48.703Z,16.10
2022-07-30T06:31:29.793Z,21.23
2022-07-30T06:33:57.253Z,17.80
2022-07-30T06:36:26.678Z,19.98
2022-07-30T06:39:00.679Z,23.02
2022-07-30T06:41:48.485Z,21.77
2022-07-30T06:44:16.106Z,22.48
2022-07-30T06:47:07.165Z,20.77
2022-07-30T06:49:37.759Z,23.40
2022-07-30T06:52:06.741Z,25.55
2022-07-30T06:54:34.317Z,27.10
2022-07-30T06:57:07.078Z,27.92
2022-07-30T06:59:56.965Z,26.05
2022-07-30T07:02:44.733Z,25.10
2022-07-30T07:05:14.658Z,23.35
2022-07-30T07:07:58.362Z,18.73
2022-07-30T07:10:29.076Z,19.48
2022-07-30T07:13:25.745Z,19.33
2022-07-30T07:15:53.048Z,19.20
2022-07-30T07:18:22.916Z,21.42
2022-07-30T07:20:55.434Z,17.40
2022-07-30T07:23:24.074Z,19.60
2022-07-30T07:25:55.812Z,21.40
2022-07-30T07:28:29.975Z,20.13
2022-07-30T07:31:02.040Z,27.58
2022-07-30T07:33:33.452Z,25.92
2022-07-30T07:36:02.286Z,23.65
2022-07-30T07:38:33.205Z,23.02
2022-07-30T07:41:01.101Z,25.40
2022-07-30T07:43:29.205Z,26.02
2022-07-30T07:46:02.422Z,24.27
2022-07-30T07:48:33.639Z,23.65
2022-07-30T07:51:47.767Z,21.70
2022-07-30T07:54:22.612Z,23.25
2022-07-30T07:57:03.191Z,17.60
2022-07-30T07:59:40.131Z,22.33
2022-07-30T08:02:20.179Z,22.77
2022-07-30T08:05:06.751Z,12.00
2022-07-30T08:07:55.084Z,19.20
2022-07-30T08:10:50.249Z,22.40
2022-07-30T08:13:49.320Z,20.65
2022-07-30T08:16:47.217Z,22.02
2022-07-30T08:19:33.924Z,19.55
2022-07-30T08:22:17.994Z,19.55
2022-07-30T08:24:45.897Z,20.15
2022-07-30T08:27:23.030Z,24.90
2022-07-30T08:29:50.506Z,23.05
2022-07-30T08:32:25.581Z,19.92
2022-07-30T08:34:53.535Z,25.13
2022-07-30T08:37:22.120Z,19.30
2022-07-30T08:39:49.537Z,18.77
2022-07-30T08:42:17.403Z,17.45
2022-07-30T08:44:46.824Z,20.40
2022-07-30T08:47:21.387Z,18.42
2022-07-30T08:50:05.315Z,18.85
2022-07-30T08:52:37.970Z,15.98
2022-07-30T08:55:08.202Z,15.65
2022-07-30T08:57:38.621Z,19.38
2022-07-30T09:00:08.724Z,19.65
2022-07-30T09:02:36.484Z,18.42
2022-07-30T09:05:07.648Z,17.95
2022-07-30T09:07:36.648Z,18.77
2022-07-30T09:10:07.934Z,18.80
2022-07-30T09:12:45.686Z,15.52
2022-07-30T09:15:20.471Z,19.45
2022-07-30T09:18:03.051Z,15.05
2022-07-30T09:20:38.698Z,14.63
2022-07-30T09:23:09.258Z,13.95
2022-07-30T09:25:56.961Z,13.55
2022-07-30T09:28:43.142Z,16.88
2022-07-30T09:34:38.625Z,12.60
2022-07-30T09:37:19.928Z,13.80
2022-07-30T09:40:15.015Z,12.48
2022-07-30T09:43:12.631Z,11.15
2022-07-30T09:46:01.591Z,12.30
2022-07-30T09:48:29.261Z,11.15
2022-07-30T09:50:57.554Z,12.32
2022-07-30T09:53:26.507Z,11.30
2022-07-30T09:55:58.142Z,10.48
2022-07-30T09:58:45.566Z,10.38
2022-07-30T10:01:14.849Z,10.25
2022-07-30T10:04:02.291Z,8.70
2022-07-30T10:07:02.158Z,7.63
2022-07-30T10:09:47.086Z,8.30
2022-07-30T10:12:17.819Z,8.77
2022-07-30T10:14:54.012Z,6.97
2022-07-30T10:17:26.018Z,9.45
2022-07-30T10:20:19.029Z,7.82
2022-07-30T10:23:19.324Z,7.93
2022-07-30T10:26:09.132Z,8.35
2022-07-30T10:28:57.847Z,7.40
2022-07-30T10:31:47.978Z,6.45
2022-07-30T10:34:23.685Z,7.72
2022-07-30T10:37:01.813Z,7.13
2022-07-30T10:39:47.191Z,5.53
2022-07-30T10:42:42.141Z,6.97
2022-07-30T10:45:23.242Z,4.80
2022-07-30T10:47:53.313Z,4.97
2022-07-30T10:50:27.193Z,4.28
2022-07-30T10:53:03.496Z,5.68
2022-07-30T10:55:38.847Z,7.13
2022-07-30T10:58:14.252Z,5.20
2022-07-30T11:00:56.953Z,6.75
2022-07-30T11:03:40.966Z,5.03
2022-07-30T11:06:15.338Z,6.07
2022-07-30T11:08:48.501Z,5.97
2022-07-30T11:12:01.160Z,7.57
2022-07-30T11:14:20.340Z,7.93
2022-07-30T11:16:51.378Z,4.57
2022-07-30T11:19:56.433Z,8.68
2022-07-30T11:22:44.695Z,5.82
2022-07-30T11:25:50.428Z,3.50
2022-07-30T11:28:50.701Z,4.38
2022-07-30T11:31:56.504Z,6.13
2022-07-30T11:34:24.068Z,3.05
2022-07-30T11:37:21.773Z,5.68
2022-07-30T11:42:44.960Z,5.47
2022-07-30T11:45:18.756Z,3.58
2022-07-30T11:47:59.845Z,3.55
2022-07-30T11:50:34.944Z,5.72
2022-07-30T11:55:44.448Z,4.10
2022-07-30T11:58:34.460Z,7.30
2022-07-30T12:01:17.384Z,6.55
2022-07-30T12:03:46.567Z,4.95
2022-07-30T12:06:20.203Z,15.80
2022-07-30T12:08:58.175Z,3.95
2022-07-30T12:11:35.258Z,3.50
2022-07-30T12:14:06.830Z,4.68
2022-07-30T12:16:34.738Z,7.13
2022-07-30T12:19:06.447Z,5.25
2022-07-30T12:21:35.053Z,6.05
2022-07-30T12:24:13.760Z,4.65
2022-07-30T12:26:45.116Z,4.90
2022-07-30T12:29:15.827Z,4.15
2022-07-30T12:31:46.252Z,8.40
2022-07-30T12:34:26.746Z,6.22
2022-07-30T12:36:55.525Z,6.32
2022-07-30T12:39:29.863Z,3.83
2022-07-30T12:42:06.545Z,4.38
2022-07-30T12:44:48.137Z,4.13
2022-07-30T12:47:39.806Z,4.22
2022-07-30T12:50:18.702Z,5.10
2022-07-30T12:52:51.853Z,8.30
2022-07-30T12:55:33.042Z,6.10
2022-07-30T12:58:08.688Z,4.60
2022-07-30T13:01:03.851Z,3.92
2022-07-30T13:03:39.366Z,4.55
2022-07-30T13:06:28.611Z,5.97
2022-07-30T13:08:59.771Z,4.53
2022-07-30T13:11:48.666Z,4.95
2022-07-30T13:14:17.968Z,4.35
2022-07-30T13:16:46.005Z,5.55
2022-07-30T13:19:13.633Z,4.22
2022-07-30T13:21:49.793Z,3.90
2022-07-30T13:24:19.428Z,5.43
2022-07-30T13:26:53.237Z,6.07
2022-07-30T13:29:27.962Z,4.00
2022-07-30T13:34:25.943Z,3.58
2022-07-30T13:36:53.577Z,6.00
2022-07-30T13:39:21.376Z,3.85
2022-07-30T13:41:48.709Z,6.97
2022-07-30T13:44:17.732Z,5.85
2022-07-30T13:46:45.750Z,4.93
2022-07-30T13:49:16.303Z,4.50
2022-07-30T13:51:46.346Z,6.75
2022-07-30T13:54:23.590Z,6.88
2022-07-30T13:56:51.293Z,6.13
2022-07-30T13:59:18.820Z,5.15
2022-07-30T14:01:51.066Z,4.95
2022-07-30T14:04:18.643Z,3.38
2022-07-30T14:06:48.399Z,3.28
2022-07-30T14:09:23.975Z,3.25
2022-07-30T14:12:00.516Z,3.88
2022-07-30T14:14:33.676Z,4.20
2022-07-30T14:17:01.530Z,3.05
2022-07-30T14:19:29.306Z,4.97
2022-07-30T14:21:58.949Z,3.88
2022-07-30T14:24:26.643Z,4.13
2022-07-30T14:26:58.359Z,3.25
2022-07-30T14:29:29.454Z,4.35
2022-07-30T14:31:59.446Z,4.35
2022-07-30T14:34:26.991Z,3.90
2022-07-30T14:36:54.504Z,3.00
2022-07-30T14:39:22.385Z,4.05
2022-07-30T14:41:55.659Z,7.43
2022-07-30T14:44:24.016Z,3.63
2022-07-30T14:46:54.329Z,4.72
2022-07-30T14:49:23.947Z,11.02
2022-07-30T14:51:52.768Z,4.22
2022-07-30T14:54:21.041Z,5.05
2022-07-30T14:56:56.159Z,3.60
2022-07-30T14:59:35.255Z,4.67
2022-07-30T15:02:10.925Z,6.50
2022-07-30T15:04:48.956Z,4.97
2022-07-30T15:07:20.045Z,4.18
2022-07-30T15:09:47.510Z,3.17
2022-07-30T15:12:19.291Z,3.33
2022-07-30T15:14:54.794Z,4.75
2022-07-30T15:17:23.347Z,6.93
2022-07-30T15:19:51.572Z,4.22
2022-07-30T15:22:20.507Z,3.67
2022-07-30T15:24:48.840Z,5.60
2022-07-30T15:27:16.671Z,4.82
2022-07-30T15:29:44.610Z,4.05
2022-07-30T15:32:19.313Z,4.13
2022-07-30T15:34:49.369Z,3.67
2022-07-30T15:37:17.345Z,10.82
2022-07-30T15:39:48.944Z,3.13
2022-07-30T15:42:17.915Z,3.22
2022-07-30T15:44:48.594Z,3.25
2022-07-30T15:47:17.161Z,4.85
2022-07-30T15:49:44.927Z,3.97
2022-07-30T15:52:13.014Z,3.80
2022-07-30T15:54:41.024Z,4.53
2022-07-30T15:57:08.572Z,3.42
2022-07-30T15:59:36.205Z,5.15
2022-07-30T16:02:04.109Z,4.47
2022-07-30T16:04:34.445Z,5.28
2022-07-30T16:07:04.152Z,4.00
2022-07-30T16:09:31.853Z,4.43
2022-07-30T16:11:59.562Z,4.82
2022-07-30T16:14:27.848Z,3.17
2022-07-30T16:16:58.665Z,4.35
2022-07-30T16:19:29.509Z,4.53
2022-07-30T16:21:57.204Z,4.60
2022-07-30T16:24:26.242Z,4.15
2022-07-30T16:26:53.849Z,4.28
2022-07-30T16:29:21.295Z,12.52
2022-07-30T16:31:48.871Z,3.22
2022-07-30T16:34:17.920Z,3.35
2022-07-30T16:36:54.187Z,3.83
2022-07-30T16:39:22.303Z,4.65
2022-07-30T16:41:50.229Z,4.05
2022-07-30T16:44:17.813Z,5.10
2022-07-30T16:46:45.247Z,4.40
2022-07-30T16:49:12.711Z,2.55
2022-07-30T16:51:40.925Z,3.22
2022-07-30T16:54:08.512Z,4.75
2022-07-30T16:56:35.930Z,2.22
2022-07-30T16:59:03.462Z,3.35
2022-07-30T17:01:32.243Z,2.55
2022-07-30T17:03:59.790Z,2.05
2022-07-30T17:06:27.696Z,2.08
2022-07-30T17:08:55.592Z,1.95
2022-07-30T17:11:51.880Z,2.42
2022-07-30T17:14:13.110Z,2.47
2022-07-30T17:16:40.904Z,2.17
2022-07-30T17:19:09.608Z,2.10
2022-07-30T17:21:40.326Z,2.05
2022-07-30T17:24:11.826Z,2.58
2022-07-30T17:26:43.420Z,1.70
2022-07-30T17:29:16.552Z,2.00
2022-07-30T17:31:46.109Z,2.15
2022-07-30T17:34:18.323Z,2.95
2022-07-30T17:36:52.252Z,2.40
2022-07-30T17:40:01.657Z,1.95
2022-07-30T17:42:11.856Z,1.63
2022-07-30T17:44:43.376Z,2.22
2022-07-30T17:47:14.490Z,1.88
2022-07-30T17:49:42.489Z,3.33
2022-07-30T17:52:09.937Z,4.25
2022-07-30T17:54:38.039Z,2.88
2022-07-30T17:57:05.683Z,1.67
2022-07-30T17:59:33.701Z,2.95
2022-07-30T18:02:01.817Z,1.85
2022-07-30T18:04:29.667Z,2.17
2022-07-30T18:06:57.508Z,2.85
2022-07-30T18:09:25.116Z,2.50
2022-07-30T18:11:53.076Z,2.78
2022-07-30T18:14:24.184Z,4.07
2022-07-30T18:16:54.432Z,2.08
2022-07-30T18:19:22.896Z,2.00
2022-07-30T18:21:55.102Z,2.25
2022-07-30T18:24:24.552Z,2.03
2022-07-30T18:26:53.097Z,2.75
2022-07-30T18:29:21.127Z,3.22
2022-07-30T18:31:48.994Z,1.88
2022-07-30T18:34:16.616Z,2.38
2022-07-30T18:36:44.411Z,4.63
2022-07-30T18:39:12.228Z,1.38
2022-07-30T18:41:39.916Z,1.80
2022-07-30T18:44:07.455Z,2.08
2022-07-30T18:46:35.690Z,2.53
2022-07-30T18:49:15.453Z,3.25
2022-07-30T18:51:50.888Z,2.95
2022-07-30T18:54:18.577Z,2.05
2022-07-30T18:56:46.017Z,3.53
2022-07-30T18:59:14.842Z,1.70
2022-07-30T19:01:43.754Z,2.83
2022-07-30T19:04:11.561Z,4.60
2022-07-30T19:06:39.100Z,2.30
2022-07-30T19:09:13.021Z,3.67
2022-07-30T19:11:45.745Z,1.65
2022-07-30T19:14:14.639Z,2.67
2022-07-30T19:16:44.522Z,1.70
2022-07-30T19:19:13.724Z,1.52
2022-07-30T19:21:41.843Z,2.03
2022-07-30T19:24:10.286Z,3.45
2022-07-30T19:26:39.416Z,3.78
2022-07-30T19:29:08.192Z,4.38
2022-07-30T19:31:36.620Z,1.35
2022-07-30T19:34:04.981Z,1.40
2022-07-30T19:36:33.627Z,2.38
2022-07-30T19:39:06.955Z,4.07
2022-07-30T19:41:42.111Z,1.67
2022-07-30T19:44:12.002Z,2.20
2022-07-30T19:46:41.516Z,2.40
2022-07-30T19:49:10.920Z,3.70
2022-07-30T19:52:07.302Z,5.13
2022-07-30T19:54:26.026Z,2.25
2022-07-30T19:56:53.246Z,5.13
2022-07-30T19:59:43.736Z,4.25
2022-07-30T20:02:08.462Z,3.33
2022-07-30T20:04:37.640Z,2.83
2022-07-30T20:07:05.263Z,2.10
2022-07-30T20:09:32.895Z,2.38
2022-07-30T20:12:02.451Z,2.20
2022-07-30T20:14:30.090Z,2.75
2022-07-30T20:17:01.950Z,2.83
2022-07-30T20:19:36.042Z,2.63
2022-07-30T20:22:04.951Z,3.83
2022-07-30T20:24:34.512Z,3.03
2022-07-30T20:27:38.593Z,3.47
2022-07-30T20:32:26.263Z,2.70
2022-07-30T20:34:55.422Z,2.97
2022-07-30T20:37:23.389Z,2.70
2022-07-30T20:39:58.440Z,1.80
2022-07-30T20:42:28.022Z,3.70
2022-07-30T20:44:57.972Z,3.03
2022-07-30T20:47:34.633Z,2.47
2022-07-30T20:50:14.423Z,5.22
2022-07-30T20:52:51.169Z,1.75
2022-07-30T20:55:24.788Z,2.92
2022-07-30T20:58:11.176Z,3.00
2022-07-30T21:00:50.006Z,2.67
2022-07-30T21:03:22.117Z,4.80
2022-07-30T21:05:56.499Z,3.25
2022-07-30T21:08:26.590Z,5.07
2022-07-30T21:11:04.698Z,2.08
2022-07-30T21:13:35.600Z,4.15
2022-07-30T21:16:15.451Z,3.58
2022-07-30T21:18:49.972Z,2.85
2022-07-30T21:21:30.645Z,4.43
2022-07-30T21:24:14.927Z,3.38
2022-07-30T21:26:52.430Z,5.18
2022-07-30T21:29:20.800Z,3.67
2022-07-30T21:32:03.067Z,2.92
2022-07-30T21:34:40.343Z,2.83
2022-07-30T21:37:15.553Z,4.18
2022-07-30T21:39:46.124Z,2.80
2022-07-30T21:42:30.123Z,4.80
2022-07-30T21:45:00.535Z,4.53
2022-07-30T21:47:33.558Z,2.42
2022-07-30T21:50:10.872Z,2.28
2022-07-30T21:52:46.810Z,2.17
2022-07-30T21:55:17.602Z,2.03
2022-07-30T21:57:57.739Z,2.17
2022-07-30T22:01:17.895Z,4.60
2022-07-30T22:04:02.075Z,2.33
2022-07-30T22:06:44.704Z,1.35
2022-07-30T22:09:34.242Z,3.17
2022-07-30T22:12:12.277Z,4.20
2022-07-30T22:15:15.460Z,2.50
2022-07-30T22:17:58.671Z,4.13
2022-07-30T22:20:37.735Z,3.78
2022-07-30T22:23:13.564Z,2.60
2022-07-30T22:25:46.688Z,3.20
2022-07-30T22:28:22.904Z,4.90
2022-07-30T22:30:56.237Z,3.38
2022-07-30T22:33:32.015Z,2.92
2022-07-30T22:39:02.929Z,6.75
2022-07-30T22:41:41.953Z,3.90
2022-07-30T22:44:12.944Z,3.53
2022-07-30T22:46:56.054Z,2.88
2022-07-30T22:49:45.918Z,2.10
2022-07-30T22:52:30.325Z,2.45
2022-07-30T22:55:22.162Z,3.45
2022-07-30T22:57:54.042Z,2.85
2022-07-30T23:03:27.859Z,2.35
2022-07-30T23:06:01.385Z,2.70
2022-07-30T23:08:36.821Z,2.90
2022-07-30T23:11:21.536Z,2.92
2022-07-30T23:12:31.991Z,2.97
2022-07-30T23:12:34.370Z,2.38
2022-07-30T23:14:02.141Z,3.05
2022-07-30T23:16:34.324Z,3.08
2022-07-30T23:19:21.786Z,4.25
2022-07-30T23:22:04.361Z,4.10
2022-07-30T23:24:47.077Z,6.43
2022-07-30T23:27:17.900Z,5.22
2022-07-30T23:29:51.045Z,3.80
2022-07-30T23:32:24.718Z,4.43
2022-07-30T23:34:55.004Z,4.18
2022-07-30T23:37:47.704Z,3.83
2022-07-30T23:40:25.374Z,4.15
2022-07-30T23:42:56.566Z,2.33
2022-07-30T23:45:30.285Z,3.35
2022-07-30T23:48:02.386Z,4.82
2022-07-30T23:50:36.420Z,5.45
2022-07-30T23:53:07.503Z,3.60
2022-07-30T23:55:42.542Z,3.92
2022-07-30T23:58:27.617Z,2.97
